createdAt,value
2023-04-18T04:15:27.180Z,9.20
2023-04-18T04:16:27.179Z,8.40
2023-04-18T04:17:27.183Z,8.60
2023-04-18T04:18:27.146Z,9.40
2023-04-18T04:19:27.122Z,8.90
2023-04-18T04:20:27.108Z,8.80
2023-04-18T04:21:27.100Z,9.00
2023-04-18T04:22:27.081Z,8.50
2023-04-18T04:23:27.107Z,9.00
2023-04-18T04:24:27.066Z,10.00
2023-04-18T04:25:27.036Z,9.10
2023-04-18T04:26:27.036Z,9.20
2023-04-18T04:27:27.014Z,8.60
2023-04-18T04:28:27.013Z,8.30
2023-04-18T04:29:26.998Z,9.40
2023-04-18T04:30:26.986Z,10.20
2023-04-18T04:31:26.995Z,9.20
2023-04-18T04:32:26.985Z,9.40
2023-04-18T04:33:26.951Z,10.20
2023-04-18T04:34:26.922Z,11.20
2023-04-18T04:35:26.925Z,9.60
2023-04-18T04:36:26.893Z,8.40
2023-04-18T04:37:26.898Z,9.50
2023-04-18T04:38:26.883Z,10.30
2023-04-18T04:39:26.849Z,10.90
2023-04-18T04:40:26.860Z,8.70
2023-04-18T04:41:26.828Z,10.20
2023-04-18T04:42:26.815Z,9.90
2023-04-18T04:43:26.817Z,9.60
2023-04-18T04:44:26.871Z,9.30
2023-04-18T04:45:26.789Z,10.40
2023-04-18T04:46:26.775Z,9.10
2023-04-18T04:47:26.752Z,9.00
2023-04-18T04:48:26.749Z,8.50
2023-04-18T04:49:26.713Z,10.20
2023-04-18T04:50:26.711Z,12.00
2023-04-18T04:51:26.695Z,9.30
2023-04-18T04:52:26.684Z,12.10
2023-04-18T04:53:26.674Z,9.40
2023-04-18T04:54:26.658Z,11.60
2023-04-18T04:55:26.645Z,11.20
2023-04-18T04:56:26.638Z,10.00
2023-04-18T04:57:26.619Z,9.40
2023-04-18T04:58:26.654Z,12.90
2023-04-18T04:59:26.605Z,8.70
2023-04-18T05:00:26.581Z,10.00
2023-04-18T05:01:26.604Z,10.70
2023-04-18T05:02:26.625Z,8.40
2023-04-18T05:03:26.731Z,9.30
2023-04-18T05:04:26.705Z,9.80
2023-04-18T05:05:26.511Z,9.70
2023-04-18T05:06:26.525Z,11.50
2023-04-18T05:07:26.481Z,10.50
2023-04-18T05:08:26.486Z,9.40
2023-04-18T05:09:26.451Z,9.40
2023-04-18T05:10:26.479Z,10.30
2023-04-18T05:11:26.436Z,9.80
2023-04-18T05:12:26.425Z,10.30
2023-04-18T05:13:26.417Z,10.40
2023-04-18T05:14:26.397Z,9.80
2023-04-18T05:15:26.379Z,10.70
2023-04-18T05:16:26.404Z,8.50
2023-04-18T05:17:26.358Z,11.00
2023-04-18T05:18:26.360Z,10.70
2023-04-18T05:19:26.316Z,11.30
2023-04-18T05:20:26.318Z,11.20
2023-04-18T05:21:26.296Z,8.70
2023-04-18T05:22:26.286Z,12.00
2023-04-18T05:23:26.296Z,10.40
2023-04-18T05:24:26.274Z,11.20
2023-04-18T05:25:26.257Z,11.30
2023-04-18T05:26:26.247Z,10.60
2023-04-18T05:27:26.298Z,8.20
2023-04-18T05:28:26.221Z,9.20
2023-04-18T05:29:26.196Z,9.90
2023-04-18T05:30:26.195Z,9.20
2023-04-18T05:31:26.198Z,11.00
2023-04-18T05:32:26.167Z,11.40
2023-04-18T05:33:26.148Z,8.30
2023-04-18T05:34:26.129Z,10.10
2023-04-18T05:35:26.128Z,9.60
2023-04-18T05:36:26.102Z,9.60
2023-04-18T05:37:26.103Z,10.40
2023-04-18T05:38:26.089Z,9.60
2023-04-18T05:39:26.112Z,9.10
2023-04-18T05:40:26.059Z,9.60
2023-04-18T05:41:26.039Z,10.20
2023-04-18T05:42:26.045Z,10.30
2023-04-18T05:43:26.036Z,10.60
2023-04-18T05:44:26.023Z,9.80
2023-04-18T05:45:25.991Z,10.80
2023-04-18T05:46:25.987Z,9.50
2023-04-18T05:47:25.970Z,8.90
2023-04-18T05:48:25.967Z,11.10
2023-04-18T05:49:25.928Z,8.80
2023-04-18T05:50:25.924Z,12.70
2023-04-18T05:51:25.905Z,11.10
2023-04-18T05:52:25.925Z,10.30
2023-04-18T05:53:25.895Z,9.90
2023-04-18T05:54:25.885Z,10.40
2023-04-18T05:55:25.852Z,10.70
2023-04-18T05:56:25.878Z,10.00
2023-04-18T05:57:25.852Z,10.80
2023-04-18T05:58:25.831Z,10.40
2023-04-18T05:59:25.804Z,10.20
2023-04-18T06:00:25.862Z,11.20
2023-04-18T06:01:25.840Z,12.10
2023-04-18T06:02:26.108Z,10.60
2023-04-18T06:03:25.968Z,10.30
2023-04-18T06:04:25.902Z,10.10
2023-04-18T06:05:25.880Z,11.20
2023-04-18T06:06:25.793Z,12.60
2023-04-18T06:07:25.729Z,10.50
2023-04-18T06:08:25.752Z,10.20
2023-04-18T06:09:25.757Z,13.40
2023-04-18T06:10:25.704Z,11.90
2023-04-18T06:11:25.662Z,11.40
2023-04-18T06:12:25.671Z,11.20
2023-04-18T06:13:25.640Z,11.60
2023-04-18T06:14:25.605Z,11.30
2023-04-18T06:15:25.591Z,14.30
2023-04-18T06:16:25.637Z,11.70
2023-04-18T06:17:25.592Z,12.40
2023-04-18T06:18:25.578Z,10.90
2023-04-18T06:19:25.533Z,11.10
2023-04-18T06:20:25.525Z,12.60
2023-04-18T06:21:25.512Z,13.30
2023-04-18T06:22:25.511Z,12.30
2023-04-18T06:23:25.512Z,11.50
2023-04-18T06:24:25.477Z,13.90
2023-04-18T06:25:25.468Z,14.10
2023-04-18T06:26:25.449Z,12.10
2023-04-18T06:27:31.103Z,11.20
2023-04-18T06:28:26.446Z,11.90
2023-04-18T06:29:25.408Z,13.60
2023-04-18T06:30:25.400Z,13.20
2023-04-18T06:31:25.394Z,13.40
2023-04-18T06:32:25.463Z,13.40
2023-04-18T06:33:25.376Z,13.60
2023-04-18T06:34:25.340Z,13.00
2023-04-18T06:35:26.640Z,12.60
2023-04-18T06:36:25.321Z,14.40
2023-04-18T06:37:25.301Z,12.60
2023-04-18T06:38:25.302Z,12.10
2023-04-18T06:39:25.276Z,10.20
2023-04-18T06:40:25.270Z,11.80
2023-04-18T06:41:25.269Z,14.00
2023-04-18T06:42:25.242Z,12.70
2023-04-18T06:43:25.236Z,11.80
2023-04-18T06:44:25.240Z,12.90
2023-04-18T06:45:25.246Z,13.10
2023-04-18T06:46:25.322Z,12.80
2023-04-18T06:47:25.190Z,12.60
2023-04-18T06:48:25.182Z,14.40
2023-04-18T06:49:26.654Z,12.70
2023-04-18T06:50:25.138Z,14.30
2023-04-18T06:51:25.122Z,13.50
2023-04-18T06:52:25.111Z,13.70
2023-04-18T06:53:25.106Z,12.40
2023-04-18T06:54:25.085Z,13.20
2023-04-18T06:55:25.068Z,12.40
2023-04-18T06:56:25.064Z,12.40
2023-04-18T06:57:25.060Z,14.20
2023-04-18T06:58:25.061Z,11.40
2023-04-18T06:59:25.013Z,13.80
2023-04-18T07:00:25.024Z,12.30
2023-04-18T07:01:25.004Z,11.90
2023-04-18T07:02:25.046Z,12.30
2023-04-18T07:03:25.097Z,12.30
2023-04-18T07:04:25.016Z,11.50
2023-04-18T07:05:24.935Z,10.80
2023-04-18T07:06:24.929Z,12.10
2023-04-18T07:07:24.902Z,12.80
2023-04-18T07:08:24.912Z,11.90
2023-04-18T07:09:24.893Z,11.60
2023-04-18T07:10:24.871Z,14.50
2023-04-18T07:11:24.865Z,10.00
2023-04-18T07:12:24.850Z,12.20
2023-04-18T07:13:24.837Z,14.40
2023-04-18T07:14:24.845Z,10.90
2023-04-18T07:15:24.804Z,11.80
2023-04-18T07:16:24.828Z,13.30
2023-04-18T07:17:24.806Z,11.40
2023-04-18T07:18:36.686Z,13.00
2023-04-18T07:20:39.561Z,13.80
2023-04-18T07:21:39.536Z,13.50
2023-04-18T07:22:39.529Z,12.50
2023-04-18T07:23:39.533Z,13.70
2023-04-18T07:24:39.507Z,15.80
2023-04-18T07:25:39.500Z,12.90
2023-04-18T07:26:39.477Z,14.80
2023-04-18T07:27:39.459Z,13.80
2023-04-18T07:28:39.464Z,15.20
2023-04-18T07:29:39.452Z,15.60
2023-04-18T07:30:39.491Z,14.40
2023-04-18T07:31:39.427Z,13.20
2023-04-18T07:32:39.458Z,14.60
2023-04-18T07:33:39.383Z,15.40
2023-04-18T07:34:39.368Z,14.80
2023-04-18T07:35:39.365Z,13.40
2023-04-18T07:36:39.346Z,16.40
2023-04-18T07:37:39.351Z,13.30
2023-04-18T07:38:39.354Z,14.90
2023-04-18T07:39:39.303Z,22.50
2023-04-18T07:40:39.315Z,15.00
2023-04-18T07:41:39.276Z,13.20
2023-04-18T07:42:39.286Z,13.60
2023-04-18T07:43:39.257Z,14.10
2023-04-18T07:44:39.266Z,14.50
2023-04-18T07:45:39.226Z,14.60
2023-04-18T07:46:39.285Z,11.70
2023-04-18T07:47:39.255Z,17.50
2023-04-18T07:48:39.192Z,12.60
2023-04-18T07:49:39.179Z,13.60
2023-04-18T07:50:39.173Z,12.80
2023-04-18T07:51:39.153Z,15.70
2023-04-18T07:52:39.637Z,14.60
2023-04-18T07:53:39.137Z,15.50
2023-04-18T07:54:39.111Z,13.30
2023-04-18T07:55:39.098Z,14.70
2023-04-18T07:56:39.099Z,14.60
2023-04-18T07:57:39.100Z,12.90
2023-04-18T07:58:39.065Z,13.50
2023-04-18T07:59:39.049Z,11.10
2023-04-18T08:00:39.041Z,14.20
2023-04-18T08:01:39.019Z,13.40
2023-04-18T08:02:39.135Z,12.60
2023-04-18T08:03:39.086Z,13.20
2023-04-18T08:04:39.139Z,12.80
2023-04-18T08:05:39.048Z,15.30
2023-04-18T08:06:38.961Z,15.20
2023-04-18T08:07:38.942Z,12.40
2023-04-18T08:08:38.942Z,16.80
2023-04-18T08:09:38.927Z,12.30
2023-04-18T08:10:38.911Z,13.80
2023-04-18T08:11:38.892Z,14.10
2023-04-18T08:12:38.875Z,12.10
2023-04-18T08:13:38.892Z,13.60
2023-04-18T08:14:38.848Z,14.90
2023-04-18T08:15:38.838Z,13.80
2023-04-18T08:16:38.876Z,12.10
2023-04-18T08:17:38.873Z,13.70
2023-04-18T08:18:38.811Z,13.70
2023-04-18T08:19:38.897Z,13.90
2023-04-18T08:20:38.784Z,15.20
2023-04-18T08:21:38.755Z,15.70
2023-04-18T08:22:50.020Z,12.90
2023-04-18T08:23:39.737Z,13.50
2023-04-18T08:24:38.724Z,13.20
2023-04-18T08:25:38.708Z,12.20
2023-04-18T08:26:38.693Z,13.70
2023-04-18T08:27:38.675Z,14.00
2023-04-18T08:28:38.683Z,12.70
2023-04-18T08:29:38.645Z,13.30
2023-04-18T08:30:38.643Z,13.30
2023-04-18T08:31:38.626Z,15.10
2023-04-18T08:32:38.664Z,15.50
2023-04-18T08:33:38.609Z,14.90
2023-04-18T08:34:38.582Z,14.10
2023-04-18T08:35:38.583Z,13.20
2023-04-18T08:36:38.563Z,13.70
2023-04-18T08:37:38.544Z,14.20
2023-04-18T08:38:38.559Z,14.30
2023-04-18T08:39:38.518Z,16.80
2023-04-18T08:40:38.518Z,16.30
2023-04-18T08:41:38.507Z,17.20
2023-04-18T08:42:38.590Z,14.20
2023-04-18T08:43:38.472Z,13.50
2023-04-18T08:44:38.497Z,14.90
2023-04-18T08:45:38.487Z,15.60
2023-04-18T08:46:38.448Z,13.10
2023-04-18T08:47:38.431Z,16.00
2023-04-18T08:48:38.409Z,13.50
2023-04-18T08:49:38.381Z,14.10
2023-04-18T08:50:38.370Z,18.10
2023-04-18T08:51:38.353Z,15.30
2023-04-18T08:52:38.350Z,15.80
2023-04-18T08:53:38.344Z,17.10
2023-04-18T08:54:38.321Z,16.00
2023-04-18T08:55:38.318Z,17.30
2023-04-18T08:56:38.292Z,15.00
2023-04-18T08:57:38.274Z,16.90
2023-04-18T08:58:38.297Z,14.90
2023-04-18T08:59:38.251Z,17.20
2023-04-18T09:00:38.238Z,15.80
2023-04-18T09:01:38.249Z,17.80
2023-04-18T09:02:38.298Z,16.30
2023-04-18T09:03:38.243Z,15.80
2023-04-18T09:04:38.338Z,15.60
2023-04-18T09:05:38.164Z,15.80
2023-04-18T09:06:38.158Z,17.00
2023-04-18T09:07:38.134Z,17.50
2023-04-18T09:08:38.136Z,16.80
2023-04-18T09:09:38.118Z,14.90
2023-04-18T09:10:38.105Z,15.90
2023-04-18T09:11:38.085Z,16.20
2023-04-18T09:12:38.076Z,17.90
2023-04-18T09:13:38.063Z,17.40
2023-04-18T09:14:38.082Z,18.30
2023-04-18T09:15:38.049Z,16.50
2023-04-18T09:16:38.070Z,18.40
2023-04-18T09:17:38.064Z,18.70
2023-04-18T09:18:38.001Z,17.00
2023-04-18T09:19:37.992Z,14.90
2023-04-18T09:20:38.446Z,17.30
2023-04-18T09:21:37.964Z,16.30
2023-04-18T09:22:39.559Z,16.80
2023-04-18T09:23:37.937Z,16.50
2023-04-18T09:24:37.947Z,14.40
2023-04-18T09:25:39.821Z,19.30
2023-04-18T09:26:37.905Z,15.40
2023-04-18T09:27:37.887Z,18.70
2023-04-18T09:28:37.871Z,16.90
2023-04-18T09:29:37.878Z,16.70
2023-04-18T09:30:37.962Z,17.00
2023-04-18T09:31:37.836Z,16.40
2023-04-18T09:32:37.847Z,16.80
2023-04-18T09:33:37.813Z,16.00
2023-04-18T09:34:37.805Z,17.00
2023-04-18T09:35:37.792Z,18.00
2023-04-18T09:36:37.806Z,17.10
2023-04-18T09:37:37.756Z,19.80
2023-04-18T09:38:37.728Z,16.00
2023-04-18T09:39:37.724Z,17.70
2023-04-18T09:40:37.703Z,15.70
2023-04-18T09:41:37.706Z,16.10
2023-04-18T09:42:37.685Z,17.20
2023-04-18T09:43:37.687Z,16.40
2023-04-18T09:44:37.673Z,18.20
2023-04-18T09:45:37.645Z,16.40
2023-04-18T09:46:37.743Z,17.20
2023-04-18T09:47:37.779Z,15.90
2023-04-18T09:48:37.604Z,15.50
2023-04-18T09:49:37.608Z,16.50
2023-04-18T09:50:37.570Z,16.50
2023-04-18T09:51:37.565Z,17.50
2023-04-18T09:52:37.571Z,16.60
2023-04-18T09:53:37.530Z,14.20
2023-04-18T09:54:37.525Z,14.00
2023-04-18T09:55:37.507Z,16.70
2023-04-18T09:56:37.489Z,14.50
2023-04-18T09:57:37.493Z,17.40
2023-04-18T09:58:37.457Z,15.70
2023-04-18T09:59:37.479Z,17.40
2023-04-18T10:00:37.437Z,16.30
2023-04-18T10:01:37.458Z,16.60
2023-04-18T10:02:37.517Z,17.20
2023-04-18T10:03:37.497Z,17.20
2023-04-18T10:04:37.502Z,15.80
2023-04-18T10:05:37.378Z,17.50
2023-04-18T10:06:37.356Z,18.70
2023-04-18T10:07:37.348Z,16.20
2023-04-18T10:08:37.337Z,16.90
2023-04-18T10:09:37.340Z,17.90
2023-04-18T10:10:38.966Z,16.70
2023-04-18T10:11:37.322Z,16.90
2023-04-18T10:12:37.279Z,15.30
2023-04-18T10:13:37.271Z,16.40
2023-04-18T10:14:37.263Z,17.40
2023-04-18T10:15:37.276Z,20.90
2023-04-18T10:16:37.255Z,17.90
2023-04-18T10:17:37.239Z,19.90
2023-04-18T10:18:37.271Z,18.60
2023-04-18T10:19:37.208Z,19.30
2023-04-18T10:20:37.184Z,21.70
2023-04-18T10:21:37.157Z,19.50
2023-04-18T10:22:37.148Z,20.50
2023-04-18T10:23:37.188Z,18.80
2023-04-18T10:24:37.120Z,19.90
2023-04-18T10:25:37.137Z,19.60
2023-04-18T10:26:37.098Z,20.20
2023-04-18T10:27:37.088Z,17.90
2023-04-18T10:28:37.366Z,21.30
2023-04-18T10:29:37.048Z,22.40
2023-04-18T10:30:37.060Z,21.10
2023-04-18T10:31:37.059Z,21.40
2023-04-18T10:32:37.065Z,18.10
2023-04-18T10:33:37.145Z,21.20
2023-04-18T10:34:38.020Z,20.70
2023-04-18T10:35:37.612Z,22.20
2023-04-18T10:36:36.965Z,21.50
2023-04-18T10:37:36.946Z,22.90
2023-04-18T10:38:36.940Z,22.60
2023-04-18T10:39:36.921Z,23.30
2023-04-18T10:40:36.970Z,21.90
2023-04-18T10:41:36.897Z,22.10
2023-04-18T10:42:36.897Z,23.40
2023-04-18T10:43:36.874Z,20.10
2023-04-18T10:44:36.873Z,22.10
2023-04-18T10:45:36.844Z,23.50
2023-04-18T10:46:36.894Z,20.90
2023-04-18T10:47:36.895Z,23.70
2023-04-18T10:48:38.537Z,20.80
2023-04-18T10:49:36.813Z,20.60
2023-04-18T10:50:36.779Z,20.80
2023-04-18T10:51:36.772Z,21.00
2023-04-18T10:52:36.757Z,20.50
2023-04-18T10:53:36.745Z,21.90
2023-04-18T10:54:36.743Z,22.30
2023-04-18T10:55:36.717Z,21.80
2023-04-18T10:56:36.726Z,21.30
2023-04-18T10:57:36.704Z,20.00
2023-04-18T10:58:36.679Z,22.80
2023-04-18T10:59:36.680Z,22.40
2023-04-18T11:00:36.675Z,19.70
2023-04-18T11:01:36.706Z,20.60
2023-04-18T11:02:36.737Z,19.80
2023-04-18T11:03:36.651Z,22.30
2023-04-18T11:04:36.625Z,21.90
2023-04-18T11:05:36.597Z,20.80
2023-04-18T11:06:36.578Z,23.40
2023-04-18T11:07:36.561Z,19.80
2023-04-18T11:08:36.551Z,19.30
2023-04-18T11:09:36.529Z,21.10
2023-04-18T11:10:36.556Z,19.30
2023-04-18T11:11:36.512Z,19.40
2023-04-18T11:12:36.652Z,20.60
2023-04-18T11:13:36.485Z,23.10
2023-04-18T11:14:36.474Z,18.00
2023-04-18T11:15:36.466Z,18.20
2023-04-18T11:16:36.519Z,20.40
2023-04-18T11:17:36.449Z,19.00
2023-04-18T11:18:36.423Z,19.20
2023-04-18T11:19:36.412Z,19.50
2023-04-18T11:20:36.404Z,17.80
2023-04-18T11:21:36.382Z,17.30
2023-04-18T11:22:36.373Z,19.50
2023-04-18T11:23:36.352Z,18.10
2023-04-18T11:24:36.339Z,16.30
2023-04-18T11:25:36.352Z,21.30
2023-04-18T11:26:37.256Z,19.40
2023-04-18T11:27:36.305Z,19.30
2023-04-18T11:28:36.287Z,19.20
2023-04-18T11:29:36.269Z,20.00
2023-04-18T11:30:36.268Z,20.10
2023-04-18T11:31:36.295Z,20.70
2023-04-18T11:32:36.397Z,18.10
2023-04-18T11:33:36.209Z,23.10
2023-04-18T11:34:36.206Z,20.50
2023-04-18T11:35:36.218Z,20.40
2023-04-18T11:36:36.187Z,19.30
2023-04-18T11:37:36.155Z,21.00
2023-04-18T11:38:36.149Z,18.80
2023-04-18T11:39:36.144Z,19.60
2023-04-18T11:40:36.128Z,19.80
2023-04-18T11:41:36.100Z,19.60
2023-04-18T11:42:36.089Z,20.30
2023-04-18T11:43:36.095Z,20.30
2023-04-18T11:44:36.352Z,19.40
2023-04-18T11:45:36.058Z,21.00
2023-04-18T11:46:36.139Z,21.40
2023-04-18T11:47:36.054Z,19.60
2023-04-18T11:48:36.022Z,18.60
2023-04-18T11:49:35.995Z,21.80
2023-04-18T11:50:36.004Z,20.40
2023-04-18T11:51:36.108Z,21.60
2023-04-18T11:52:35.965Z,19.90
2023-04-18T11:53:35.951Z,19.90
2023-04-18T11:54:35.931Z,20.60
2023-04-18T11:55:35.924Z,18.60
2023-04-18T11:56:36.943Z,19.20
2023-04-18T11:57:35.890Z,17.40
2023-04-18T11:58:35.894Z,19.30
2023-04-18T11:59:35.878Z,19.50
2023-04-18T12:00:35.861Z,19.40
2023-04-18T12:01:35.832Z,17.10
2023-04-18T12:02:35.900Z,18.20
2023-04-18T12:03:36.060Z,18.20
2023-04-18T12:04:36.112Z,17.00
2023-04-18T12:05:36.209Z,20.50
2023-04-18T12:06:35.777Z,19.30
2023-04-18T12:07:35.759Z,17.80
2023-04-18T12:08:35.747Z,17.40
2023-04-18T12:09:35.734Z,22.10
2023-04-18T12:10:35.749Z,17.70
2023-04-18T12:11:35.707Z,19.20
2023-04-18T12:12:35.705Z,15.40
2023-04-18T12:13:35.771Z,16.30
2023-04-18T12:14:35.672Z,17.30
2023-04-18T12:15:35.716Z,17.70
2023-04-18T12:16:35.815Z,16.70
2023-04-18T12:17:35.664Z,17.10
2023-04-18T12:18:35.621Z,19.50
2023-04-18T12:19:35.600Z,17.10
2023-04-18T12:20:35.614Z,18.40
2023-04-18T12:21:35.584Z,17.30
2023-04-18T12:22:35.567Z,17.50
2023-04-18T12:23:35.613Z,16.80
2023-04-18T12:24:35.542Z,16.90
2023-04-18T12:25:35.541Z,19.60
2023-04-18T12:26:35.517Z,16.30
2023-04-18T12:27:35.491Z,15.90
2023-04-18T12:28:35.479Z,16.20
2023-04-18T12:29:35.463Z,14.90
2023-04-18T12:30:37.609Z,16.40
2023-04-18T12:31:35.510Z,17.80
2023-04-18T12:32:35.464Z,15.70
2023-04-18T12:33:35.411Z,15.50
2023-04-18T12:34:35.404Z,15.40
2023-04-18T12:35:35.398Z,16.30
2023-04-18T12:36:35.388Z,14.40
2023-04-18T12:37:35.358Z,14.60
2023-04-18T12:38:35.353Z,16.80
2023-04-18T12:39:35.338Z,16.70
2023-04-18T12:40:35.342Z,15.30
2023-04-18T12:41:35.302Z,13.90
2023-04-18T12:42:35.299Z,16.90
2023-04-18T12:43:35.281Z,16.30
2023-04-18T12:44:35.266Z,14.40
2023-04-18T12:45:35.267Z,16.70
2023-04-18T12:46:35.272Z,13.40
2023-04-18T12:47:35.256Z,15.50
2023-04-18T12:48:35.216Z,15.40
2023-04-18T12:49:35.213Z,13.10
2023-04-18T12:50:35.204Z,13.40
2023-04-18T12:51:35.201Z,15.40
2023-04-18T12:52:35.173Z,13.60
2023-04-18T12:53:35.147Z,14.60
2023-04-18T12:54:37.363Z,13.50
2023-04-18T12:55:35.139Z,15.00
2023-04-18T12:56:35.114Z,16.30
2023-04-18T12:57:35.090Z,15.90
2023-04-18T12:58:35.082Z,15.90
2023-04-18T12:59:35.064Z,14.90
2023-04-18T13:00:35.171Z,13.60
2023-04-18T13:01:35.116Z,13.40
2023-04-18T13:02:35.138Z,14.50
2023-04-18T13:03:35.155Z,14.90
2023-04-18T13:04:35.123Z,16.10
2023-04-18T13:05:35.003Z,18.60
2023-04-18T13:06:34.988Z,15.60
2023-04-18T13:07:34.983Z,15.10
2023-04-18T13:08:34.976Z,15.30
2023-04-18T13:09:34.934Z,16.80
2023-04-18T13:10:34.936Z,16.90
2023-04-18T13:11:34.913Z,14.90
2023-04-18T13:12:34.902Z,19.70
2023-04-18T13:13:35.802Z,13.90
2023-04-18T13:14:34.879Z,15.70
2023-04-18T13:15:34.882Z,14.60
2023-04-18T13:16:34.880Z,18.30
2023-04-18T13:17:34.864Z,13.80
2023-04-18T13:18:34.840Z,14.30
2023-04-18T13:19:34.817Z,14.30
2023-04-18T13:20:41.876Z,12.50
2023-04-18T13:21:34.780Z,14.80
2023-04-18T13:22:34.778Z,14.00
2023-04-18T13:23:34.761Z,13.40
2023-04-18T13:24:34.754Z,14.10
2023-04-18T13:25:34.763Z,14.80
2023-04-18T13:26:34.717Z,14.50
2023-04-18T13:27:34.705Z,13.20
2023-04-18T13:28:34.688Z,12.80
2023-04-18T13:29:34.679Z,14.90
2023-04-18T13:30:34.668Z,14.20
2023-04-18T13:31:34.705Z,14.90
2023-04-18T13:32:34.653Z,18.80
2023-04-18T13:33:34.616Z,13.80
2023-04-18T13:34:34.647Z,15.70
2023-04-18T13:35:34.590Z,15.90
2023-04-18T13:36:34.587Z,13.90
2023-04-18T13:37:34.562Z,16.10
2023-04-18T13:38:34.565Z,14.50
2023-04-18T13:39:34.534Z,15.20
2023-04-18T13:40:34.536Z,13.80
2023-04-18T13:41:34.526Z,14.30
2023-04-18T13:42:34.515Z,13.10
2023-04-18T13:43:34.512Z,15.40
2023-04-18T13:44:34.470Z,15.60
2023-04-18T13:45:34.490Z,17.40
2023-04-18T13:46:34.559Z,13.60
2023-04-18T13:47:34.481Z,18.50
2023-04-18T13:48:34.423Z,13.00
2023-04-18T13:49:34.408Z,14.10
2023-04-18T13:50:34.411Z,13.80
2023-04-18T13:51:34.394Z,14.50
2023-04-18T13:52:34.370Z,15.00
2023-04-18T13:53:34.358Z,16.80
2023-04-18T13:54:34.331Z,13.50
2023-04-18T13:55:34.337Z,13.00
2023-04-18T13:56:34.325Z,14.40
2023-04-18T13:57:34.303Z,16.00
2023-04-18T13:58:34.282Z,15.10
2023-04-18T13:59:34.286Z,14.90
2023-04-18T14:00:34.270Z,17.20
2023-04-18T14:01:34.273Z,14.30
2023-04-18T14:02:34.303Z,12.40
2023-04-18T14:03:35.626Z,13.30
2023-04-18T14:04:34.315Z,13.90
2023-04-18T14:05:34.218Z,15.20
2023-04-18T14:06:34.182Z,14.70
2023-04-18T14:07:34.177Z,15.70
2023-04-18T14:08:34.151Z,14.00
2023-04-18T14:09:34.141Z,15.60
2023-04-18T14:10:34.146Z,14.30
2023-04-18T14:11:34.124Z,14.00
2023-04-18T14:12:34.129Z,12.80
2023-04-18T14:13:34.089Z,15.50
2023-04-18T14:14:34.091Z,14.90
2023-04-18T14:15:34.100Z,15.60
2023-04-18T14:16:34.043Z,13.40
2023-04-18T14:17:34.044Z,13.50
2023-04-18T14:18:34.024Z,14.90
2023-04-18T14:19:34.017Z,13.60
2023-04-18T14:20:34.001Z,15.30
2023-04-18T14:21:33.992Z,13.00
2023-04-18T14:22:33.961Z,13.60
2023-04-18T14:23:33.950Z,16.60
2023-04-18T14:24:33.962Z,15.50
2023-04-18T14:25:33.929Z,14.80
2023-04-18T14:26:33.933Z,13.90
2023-04-18T14:27:33.908Z,14.10
2023-04-18T14:28:33.882Z,12.90
2023-04-18T14:29:33.879Z,14.30
2023-04-18T14:30:33.874Z,14.60
2023-04-18T14:31:33.885Z,12.10
2023-04-18T14:32:33.875Z,13.70
2023-04-18T14:33:33.822Z,13.10
2023-04-18T14:34:35.318Z,13.10
2023-04-18T14:35:33.807Z,11.80
2023-04-18T14:36:33.898Z,14.20
2023-04-18T14:37:33.769Z,11.60
2023-04-18T14:38:33.743Z,15.20
2023-04-18T14:39:33.736Z,14.80
2023-04-18T14:40:33.745Z,12.20
2023-04-18T14:41:33.723Z,14.60
2023-04-18T14:42:33.704Z,12.60
2023-04-18T14:43:33.694Z,13.40
2023-04-18T14:44:33.676Z,12.00
2023-04-18T14:45:33.703Z,11.60
2023-04-18T14:46:33.687Z,12.30
2023-04-18T14:47:33.683Z,13.20
2023-04-18T14:48:33.623Z,12.30
2023-04-18T14:49:33.610Z,12.20
2023-04-18T14:50:33.597Z,11.80
2023-04-18T14:51:33.571Z,11.20
2023-04-18T14:52:33.560Z,15.90
2023-04-18T14:53:33.547Z,11.30
2023-04-18T14:54:33.582Z,11.80
2023-04-18T14:55:33.562Z,10.60
2023-04-18T14:56:33.510Z,12.30
2023-04-18T14:57:33.501Z,11.20
2023-04-18T14:58:33.483Z,11.60
2023-04-18T14:59:33.474Z,10.90
2023-04-18T15:00:33.455Z,13.50
2023-04-18T15:01:33.478Z,12.20
2023-04-18T15:02:33.691Z,13.00
2023-04-18T15:03:33.573Z,9.70
2023-04-18T15:04:33.470Z,11.90
2023-04-18T15:05:33.397Z,10.80
2023-04-18T15:06:33.372Z,10.40
2023-04-18T15:07:33.366Z,11.50
2023-04-18T15:08:33.348Z,10.40
2023-04-18T15:09:33.353Z,9.60
2023-04-18T15:10:33.323Z,11.60
2023-04-18T15:11:33.331Z,11.30
2023-04-18T15:12:33.310Z,8.30
2023-04-18T15:13:33.286Z,10.00
2023-04-18T15:14:33.274Z,10.40
2023-04-18T15:15:33.258Z,9.70
2023-04-18T15:16:33.276Z,8.90
2023-04-18T15:17:33.260Z,9.40
2023-04-18T15:18:33.232Z,9.80
2023-04-18T15:19:33.230Z,11.80
2023-04-18T15:20:33.191Z,9.10
2023-04-18T15:21:33.178Z,8.50
2023-04-18T15:22:33.165Z,8.90
2023-04-18T15:23:33.155Z,8.90
2023-04-18T15:24:33.141Z,8.60
2023-04-18T15:25:33.147Z,8.70
2023-04-18T15:26:33.459Z,10.50
2023-04-18T15:27:33.106Z,10.30
2023-04-18T15:28:33.095Z,8.50
2023-04-18T15:29:33.132Z,10.90
2023-04-18T15:30:33.077Z,9.00
2023-04-18T15:31:33.070Z,10.50
2023-04-18T15:32:33.068Z,8.30
2023-04-18T15:33:33.028Z,8.50
2023-04-18T15:34:33.003Z,9.10
2023-04-18T15:35:33.008Z,11.20
2023-04-18T15:36:32.982Z,8.80
2023-04-18T15:37:32.981Z,10.10
2023-04-18T15:38:33.317Z,7.80
2023-04-18T15:39:32.960Z,8.80
2023-04-18T15:40:32.946Z,9.40
2023-04-18T15:41:32.921Z,9.20
2023-04-18T15:42:32.940Z,7.60
2023-04-18T15:43:32.895Z,9.10
2023-04-18T15:44:32.876Z,8.60
2023-04-18T15:45:32.875Z,7.40
2023-04-18T15:46:32.901Z,8.10
2023-04-18T15:47:32.879Z,9.30
2023-04-18T15:48:32.824Z,7.40
2023-04-18T15:49:32.824Z,9.60
2023-04-18T15:50:33.704Z,8.60
2023-04-18T15:51:32.793Z,7.40
2023-04-18T15:52:32.779Z,7.50
2023-04-18T15:53:32.759Z,8.10
2023-04-18T15:54:32.744Z,8.00
2023-04-18T15:55:32.755Z,9.80
2023-04-18T15:56:33.748Z,7.90
2023-04-18T15:57:32.714Z,6.50
2023-04-18T15:58:32.699Z,9.50
2023-04-18T15:59:32.683Z,11.30
2023-04-18T16:00:32.689Z,9.10
2023-04-18T16:01:32.881Z,8.00
2023-04-18T16:02:32.702Z,8.50
2023-04-18T16:03:32.735Z,10.50
2023-04-18T16:04:32.625Z,9.50
2023-04-18T16:05:32.619Z,8.50
2023-04-18T16:06:32.588Z,9.20
2023-04-18T16:07:32.580Z,9.10
2023-04-18T16:08:33.404Z,11.30
2023-04-18T16:09:32.551Z,8.40
2023-04-18T16:10:32.547Z,7.80
2023-04-18T16:11:32.519Z,10.70
2023-04-18T16:12:32.512Z,8.50
2023-04-18T16:13:32.504Z,7.60
2023-04-18T16:14:32.472Z,8.50
2023-04-18T16:15:32.508Z,9.70
2023-04-18T16:16:32.480Z,7.90
2023-04-18T16:17:32.474Z,8.70
2023-04-18T16:18:32.474Z,8.50
2023-04-18T16:19:34.424Z,7.90
2023-04-18T16:20:32.406Z,8.40
2023-04-18T16:21:32.396Z,9.70
2023-04-18T16:22:32.373Z,8.10
2023-04-18T16:23:32.356Z,7.80
2023-04-18T16:24:32.347Z,10.50
2023-04-18T16:25:32.343Z,11.40
2023-04-18T16:26:32.323Z,7.90
2023-04-18T16:27:32.302Z,8.90
2023-04-18T16:28:32.315Z,9.60
2023-04-18T16:29:32.283Z,9.50
2023-04-18T16:30:32.285Z,8.00
2023-04-18T16:31:32.328Z,11.70
2023-04-18T16:32:32.295Z,8.70
2023-04-18T16:33:32.254Z,10.20
2023-04-18T16:34:32.218Z,7.40
2023-04-18T16:35:32.218Z,7.50
2023-04-18T16:36:32.192Z,7.10
2023-04-18T16:37:32.174Z,8.60
2023-04-18T16:38:32.163Z,8.40
2023-04-18T16:39:32.156Z,8.80
2023-04-18T16:40:32.149Z,9.10
2023-04-18T16:41:32.134Z,9.10
2023-04-18T16:42:32.119Z,9.40
2023-04-18T16:43:32.103Z,7.30
2023-04-18T16:44:32.093Z,8.50
2023-04-18T16:45:32.076Z,8.20
2023-04-18T16:46:32.144Z,8.70
2023-04-18T16:47:32.078Z,10.60
2023-04-18T16:48:32.039Z,11.40
2023-04-18T16:49:32.028Z,10.30
2023-04-18T16:50:32.022Z,8.10
2023-04-18T16:51:31.996Z,9.40
2023-04-18T16:52:31.981Z,9.60
2023-04-18T16:53:31.968Z,10.20
2023-04-18T16:54:31.968Z,13.90
2023-04-18T16:55:31.952Z,11.50
2023-04-18T16:56:31.951Z,9.40
2023-04-18T16:57:31.932Z,8.20
2023-04-18T16:58:31.925Z,8.80
2023-04-18T16:59:31.899Z,7.90
2023-04-18T17:00:31.889Z,7.20
2023-04-18T17:01:31.903Z,9.20
2023-04-18T17:02:31.992Z,8.10
2023-04-18T17:03:31.945Z,8.00
2023-04-18T17:04:31.853Z,7.40
2023-04-18T17:05:31.825Z,8.40
2023-04-18T17:06:31.809Z,8.60
2023-04-18T17:07:31.779Z,10.30
2023-04-18T17:08:31.769Z,9.10
2023-04-18T17:09:31.782Z,8.50
2023-04-18T17:10:31.762Z,8.10
2023-04-18T17:11:31.726Z,9.00
2023-04-18T17:12:31.728Z,9.30
2023-04-18T17:13:31.802Z,7.40